Time;durP1;ratioP1;P1;durP2;ratioP2;P2;SDS_P1;SDS_P2;PMS_P1;PMS_P2;Temp;Humidity;BMP_temperature;BMP_pressure;BME280_temperature;BME280_humidity;BME280_pressure;Samples;Min_cycle;Max_cycle;Signal;HPM_P1;HPM_P2
2022/07/18 00:01:18;;;;;;;0.33;0.33;;;;;;;;;;1817352;76;26578;-89
2022/07/18 00:03:45;;;;;;;0.37;0.37;;;;;;;;;;1831431;76;26260;-89
2022/07/18 00:06:12;;;;;;;0.57;0.57;;;;;;;;;;1830727;76;26287;-89
2022/07/18 00:08:39;;;;;;;0.40;0.40;;;;;;;;;;1815590;76;26229;-89
2022/07/18 00:11:07;;;;;;;0.40;0.40;;;;;;;;;;1829703;75;26286;-90
2022/07/18 00:13:34;;;;;;;0.40;0.40;;;;;;;;;;1812120;77;26900;-89
2022/07/18 00:16:01;;;;;;;0.40;0.40;;;;;;;;;;1844118;76;26374;-89
2022/07/18 00:18:29;;;;;;;0.47;0.47;;;;;;;;;;1887519;73;26250;-88
2022/07/18 00:20:56;;;;;;;0.40;0.40;;;;;;;;;;1887233;74;26239;-88
2022/07/18 00:23:23;;;;;;;0.40;0.40;;;;;;;;;;1888906;73;26692;-90
2022/07/18 00:25:51;;;;;;;0.40;0.40;;;;;;;;;;1891372;73;26331;-89
2022/07/18 00:28:18;;;;;;;0.33;0.33;;;;;;;;;;1887626;73;26223;-88
2022/07/18 00:30:45;;;;;;;0.50;0.50;;;;;;;;;;1889720;73;26266;-89
2022/07/18 00:33:13;;;;;;;0.40;0.40;;;;;;;;;;1888459;73;26204;-89
2022/07/18 00:35:40;;;;;;;0.40;0.40;;;;;;;;;;1891169;73;26810;-88
2022/07/18 00:38:09;;;;;;;0.40;0.40;;;;;;;;;;1890618;73;26254;-88
2022/07/18 00:40:36;;;;;;;0.42;0.42;;;;;;;;;;1893885;73;26296;-88
2022/07/18 00:43:04;;;;;;;0.60;0.60;;;;;;;;;;1887660;73;26392;-88
2022/07/18 00:45:31;;;;;;;1.27;0.50;;;;;;;;;;1887147;73;26247;-88
2022/07/18 00:47:58;;;;;;;0.70;0.70;;;;;;;;;;1891406;73;26277;-90
2022/07/18 00:50:25;;;;;;;0.70;0.70;;;;;;;;;;1889160;73;26677;-89
2022/07/18 00:52:53;;;;;;;0.60;0.60;;;;;;;;;;1887703;73;26203;-88
2022/07/18 00:55:20;;;;;;;0.80;0.80;;;;;;;;;;1890082;73;26746;-90
2022/07/18 00:57:47;;;;;;;0.60;0.60;;;;;;;;;;1888236;73;26191;-89
2022/07/18 01:03:00;;;;;;;1.00;1.00;;;;;;;;;;1884807;74;26220;-90
2022/07/18 01:05:28;;;;;;;1.20;1.10;;;;;;;;;;1892456;73;26254;-89
2022/07/18 01:07:55;;;;;;;3.37;1.20;;;;;;;;;;1886153;73;27223;-89
2022/07/18 01:10:24;;;;;;;1.40;1.40;;;;;;;;;;1886819;73;26216;-89
2022/07/18 01:12:51;;;;;;;1.50;1.40;;;;;;;;;;1888467;73;26204;-90
2022/07/18 01:15:19;;;;;;;1.77;1.40;;;;;;;;;;1886507;73;26651;-89
2022/07/18 01:17:49;;;;;;;1.30;1.30;;;;;;;;;;1889157;73;26796;-89
2022/07/18 01:20:16;;;;;;;1.70;1.60;;;;;;;;;;1891084;73;26790;-89
2022/07/18 01:22:45;;;;;;;1.60;1.50;;;;;;;;;;1887330;73;26262;-89
2022/07/18 01:25:12;;;;;;;1.70;1.60;;;;;;;;;;1884272;73;26201;-88
2022/07/18 01:27:40;;;;;;;1.82;1.72;;;;;;;;;;1887293;73;26257;-88
2022/07/18 01:30:07;;;;;;;2.00;1.80;;;;;;;;;;1887129;73;27166;-89
2022/07/18 01:32:36;;;;;;;1.95;1.72;;;;;;;;;;1892681;73;26183;-90
2022/07/18 01:35:05;;;;;;;1.75;1.65;;;;;;;;;;1891892;73;26767;-89
2022/07/18 01:37:32;;;;;;;2.10;1.90;;;;;;;;;;1889044;73;26292;-89
2022/07/18 01:39:59;;;;;;;1.87;1.77;;;;;;;;;;1899918;73;26308;-88
2022/07/18 01:42:27;;;;;;;2.08;1.98;;;;;;;;;;1887774;73;26246;-88
2022/07/18 01:44:54;;;;;;;1.90;1.80;;;;;;;;;;1888706;73;26903;-88
2022/07/18 01:47:22;;;;;;;4.62;2.40;;;;;;;;;;1888820;73;26753;-88
2022/07/18 01:49:50;;;;;;;1.90;1.80;;;;;;;;;;1892549;73;26328;-89
2022/07/18 01:52:18;;;;;;;1.80;1.70;;;;;;;;;;1887694;73;26257;-89
2022/07/18 01:54:45;;;;;;;2.00;1.90;;;;;;;;;;1889976;73;26290;-89
2022/07/18 01:57:12;;;;;;;1.70;1.60;;;;;;;;;;1891225;73;26242;-90
2022/07/18 01:59:40;;;;;;;1.80;1.70;;;;;;;;;;1890206;73;26219;-91
2022/07/18 02:02:07;;;;;;;2.10;1.90;;;;;;;;;;1891059;73;26200;-87
2022/07/18 02:07:19;;;;;;;1.90;1.80;;;;;;;;;;1884726;73;26263;-89
2022/07/18 02:09:47;;;;;;;1.90;1.80;;;;;;;;;;1895007;73;26304;-89
2022/07/18 02:12:14;;;;;;;1.70;1.60;;;;;;;;;;1886005;73;26344;-89
2022/07/18 02:14:41;;;;;;;2.02;1.92;;;;;;;;;;1886126;73;26193;-90
2022/07/18 02:17:09;;;;;;;1.80;1.70;;;;;;;;;;1889548;73;26752;-87
2022/07/18 02:19:36;;;;;;;1.30;1.30;;;;;;;;;;1884632;73;26199;-89
2022/07/18 02:22:03;;;;;;;1.65;1.55;;;;;;;;;;1891451;73;26280;-88
2022/07/18 02:24:31;;;;;;;1.40;1.40;;;;;;;;;;1882771;74;26316;-90
2022/07/18 02:26:59;;;;;;;1.55;1.45;;;;;;;;;;1890766;73;26660;-88
2022/07/18 02:29:27;;;;;;;1.22;1.22;;;;;;;;;;1887906;73;26239;-89
2022/07/18 02:31:54;;;;;;;1.60;1.50;;;;;;;;;;1891517;73;26203;-90
2022/07/18 02:34:21;;;;;;;2.05;1.30;;;;;;;;;;1890194;73;26332;-88
2022/07/18 02:36:50;;;;;;;1.45;1.37;;;;;;;;;;1892381;73;26205;-90
2022/07/18 02:39:19;;;;;;;1.30;1.30;;;;;;;;;;1892345;73;26341;-90
2022/07/18 02:41:46;;;;;;;1.10;1.10;;;;;;;;;;1889274;72;26300;-90
2022/07/18 02:44:14;;;;;;;1.20;1.20;;;;;;;;;;1893008;72;26323;-89
2022/07/18 02:46:41;;;;;;;1.20;1.20;;;;;;;;;;1889992;73;26243;-89
2022/07/18 02:49:08;;;;;;;1.12;1.12;;;;;;;;;;1892158;71;26275;-90
2022/07/18 02:51:36;;;;;;;2.25;1.20;;;;;;;;;;1893986;72;26334;-90
2022/07/18 02:54:03;;;;;;;1.25;1.25;;;;;;;;;;1893224;72;26336;-89
2022/07/18 02:56:31;;;;;;;1.32;1.30;;;;;;;;;;1891934;74;26356;-90
2022/07/18 02:58:58;;;;;;;1.10;1.10;;;;;;;;;;1890372;73;26321;-89
2022/07/18 03:01:25;;;;;;;1.30;1.20;;;;;;;;;;1888930;73;26249;-89
2022/07/18 03:03:52;;;;;;;1.00;1.00;;;;;;;;;;1894620;72;26237;-89
2022/07/18 03:06:20;;;;;;;1.07;1.07;;;;;;;;;;1891454;73;26262;-90
2022/07/18 03:08:47;;;;;;;1.12;1.12;;;;;;;;;;1890685;73;26246;-89
2022/07/18 03:11:15;;;;;;;1.05;1.05;;;;;;;;;;1887328;73;26345;-90
2022/07/18 03:13:42;;;;;;;1.05;1.05;;;;;;;;;;1883208;74;26264;-90
2022/07/18 03:16:09;;;;;;;1.17;1.17;;;;;;;;;;1882421;73;26252;-89
2022/07/18 03:18:36;;;;;;;1.00;1.00;;;;;;;;;;1884113;73;26328;-89
2022/07/18 03:21:04;;;;;;;1.10;1.10;;;;;;;;;;1883468;74;26383;-88
2022/07/18 03:23:31;;;;;;;1.05;1.05;;;;;;;;;;1885869;73;26714;-88
2022/07/18 03:25:58;;;;;;;0.90;0.90;;;;;;;;;;1883308;73;26720;-88
2022/07/18 03:28:26;;;;;;;1.00;1.00;;;;;;;;;;1888131;73;26253;-89
2022/07/18 03:30:53;;;;;;;1.15;1.15;;;;;;;;;;1887548;73;26329;-89
2022/07/18 03:33:20;;;;;;;1.00;1.00;;;;;;;;;;1890427;73;26243;-89
2022/07/18 03:35:47;;;;;;;1.12;1.12;;;;;;;;;;1885531;73;26311;-90
2022/07/18 03:38:15;;;;;;;1.10;1.10;;;;;;;;;;1887770;73;26265;-89
2022/07/18 03:40:42;;;;;;;1.20;1.20;;;;;;;;;;1887082;73;26889;-89
2022/07/18 03:43:09;;;;;;;1.00;1.00;;;;;;;;;;1884166;73;26242;-89
2022/07/18 03:45:37;;;;;;;1.15;1.15;;;;;;;;;;1886157;73;26257;-89
2022/07/18 03:48:05;;;;;;;1.00;1.00;;;;;;;;;;1884131;74;26683;-90
2022/07/18 03:50:33;;;;;;;0.82;0.82;;;;;;;;;;1885577;74;26884;-89
2022/07/18 03:53:01;;;;;;;1.20;1.20;;;;;;;;;;1880672;74;26796;-89
2022/07/18 03:55:28;;;;;;;1.12;1.12;;;;;;;;;;1885870;73;26270;-88
2022/07/18 03:57:55;;;;;;;0.90;0.90;;;;;;;;;;1895609;73;26261;-89
2022/07/18 04:00:22;;;;;;;0.90;0.90;;;;;;;;;;1889773;73;26340;-89
2022/07/18 04:02:50;;;;;;;0.90;0.90;;;;;;;;;;1885333;73;27012;-90
2022/07/18 04:05:17;;;;;;;1.02;1.00;;;;;;;;;;1883757;73;26232;-89
2022/07/18 04:07:46;;;;;;;0.98;0.98;;;;;;;;;;1890297;73;26315;-90
2022/07/18 04:10:13;;;;;;;0.93;0.93;;;;;;;;;;1883458;73;26325;-88
2022/07/18 04:12:51;;;;;;;0.98;0.98;;;;;;;;;;1885481;73;26278;-88
2022/07/18 04:15:19;;;;;;;0.93;0.90;;;;;;;;;;1888113;73;26342;-90
2022/07/18 04:17:47;;;;;;;0.90;0.90;;;;;;;;;;1885995;73;26654;-89
2022/07/18 04:20:16;;;;;;;1.25;0.90;;;;;;;;;;1885075;74;26179;-88
2022/07/18 04:22:51;;;;;;;0.85;0.85;;;;;;;;;;1882214;73;26857;-88
2022/07/18 04:25:19;;;;;;;0.90;0.90;;;;;;;;;;1883088;73;26255;-89
2022/07/18 04:27:47;;;;;;;0.80;0.80;;;;;;;;;;1886637;73;26754;-88
2022/07/18 04:30:15;;;;;;;0.70;0.70;;;;;;;;;;1885003;74;26232;-90
2022/07/18 04:32:42;;;;;;;0.82;0.82;;;;;;;;;;1885952;73;26242;-88
2022/07/18 04:35:11;;;;;;;0.80;0.80;;;;;;;;;;1889638;73;26273;-89
2022/07/18 04:37:41;;;;;;;0.90;0.90;;;;;;;;;;1885890;73;26282;-89
2022/07/18 04:40:10;;;;;;;0.60;0.60;;;;;;;;;;1884302;73;26713;-89
2022/07/18 04:42:37;;;;;;;0.60;0.60;;;;;;;;;;1886172;73;26196;-89
2022/07/18 04:45:05;;;;;;;0.80;0.80;;;;;;;;;;1863344;73;26242;-89
2022/07/18 04:47:34;;;;;;;0.60;0.60;;;;;;;;;;1889476;73;26274;-90
2022/07/18 04:50:01;;;;;;;0.80;0.80;;;;;;;;;;1888329;73;26677;-89
2022/07/18 04:52:30;;;;;;;0.68;0.68;;;;;;;;;;1886664;73;26254;-89
2022/07/18 04:54:57;;;;;;;0.70;0.70;;;;;;;;;;1882138;74;26263;-87
2022/07/18 04:57:25;;;;;;;0.50;0.50;;;;;;;;;;1886949;73;26273;-89
2022/07/18 04:59:52;;;;;;;0.60;0.60;;;;;;;;;;1886810;73;26317;-88
2022/07/18 05:02:19;;;;;;;0.68;0.68;;;;;;;;;;1886059;73;26278;-88
2022/07/18 05:04:46;;;;;;;0.70;0.70;;;;;;;;;;1891038;73;26366;-89
2022/07/18 05:07:14;;;;;;;0.70;0.70;;;;;;;;;;1886594;73;26340;-89
2022/07/18 05:09:41;;;;;;;0.70;0.70;;;;;;;;;;1886725;73;26433;-88
2022/07/18 05:12:09;;;;;;;0.70;0.70;;;;;;;;;;1886954;73;26246;-87
2022/07/18 05:14:36;;;;;;;0.80;0.80;;;;;;;;;;1884212;73;26301;-88
2022/07/18 05:17:03;;;;;;;0.70;0.70;;;;;;;;;;1884568;73;26335;-88
2022/07/18 05:19:31;;;;;;;0.60;0.60;;;;;;;;;;1884483;74;26757;-89
2022/07/18 05:21:58;;;;;;;0.60;0.60;;;;;;;;;;1894779;73;26265;-89
2022/07/18 05:24:25;;;;;;;0.85;0.85;;;;;;;;;;1884885;73;26821;-89
2022/07/18 05:26:53;;;;;;;0.65;0.65;;;;;;;;;;1888057;73;26223;-89
2022/07/18 05:29:21;;;;;;;0.80;0.80;;;;;;;;;;1894677;73;26347;-88
2022/07/18 05:31:49;;;;;;;0.70;0.70;;;;;;;;;;1897757;73;26243;-88
2022/07/18 05:34:16;;;;;;;1.60;0.82;;;;;;;;;;1888197;73;26262;-88
2022/07/18 05:36:43;;;;;;;1.37;0.80;;;;;;;;;;1886912;73;26849;-88
2022/07/18 05:39:11;;;;;;;1.32;1.00;;;;;;;;;;1895451;73;26235;-88
2022/07/18 05:41:38;;;;;;;1.05;0.80;;;;;;;;;;1885531;73;26263;-89
2022/07/18 05:44:05;;;;;;;3.35;0.90;;;;;;;;;;1889250;73;26762;-88
2022/07/18 05:46:33;;;;;;;0.85;0.85;;;;;;;;;;1869061;74;26348;-88
2022/07/18 05:49:01;;;;;;;1.00;1.00;;;;;;;;;;1891217;73;26343;-88
2022/07/18 05:51:28;;;;;;;0.80;0.80;;;;;;;;;;1894201;73;26266;-88
2022/07/18 05:53:56;;;;;;;2.58;1.00;;;;;;;;;;1888239;73;26622;-87
2022/07/18 05:56:24;;;;;;;0.80;0.80;;;;;;;;;;1895586;73;26306;-87
2022/07/18 05:58:52;;;;;;;1.60;0.78;;;;;;;;;;1889211;73;26347;-88
2022/07/18 06:01:20;;;;;;;3.02;0.80;;;;;;;;;;1889138;73;26277;-89
2022/07/18 06:03:47;;;;;;;0.80;0.80;;;;;;;;;;1897106;73;26328;-87
2022/07/18 06:06:15;;;;;;;1.07;1.00;;;;;;;;;;1891421;73;26808;-86
2022/07/18 06:08:42;;;;;;;0.90;0.90;;;;;;;;;;1888759;73;26246;-87
2022/07/18 06:11:10;;;;;;;1.80;1.02;;;;;;;;;;1890714;73;26833;-87
2022/07/18 06:13:38;;;;;;;0.90;0.90;;;;;;;;;;1890730;73;26545;-88
2022/07/18 06:16:06;;;;;;;0.80;0.80;;;;;;;;;;1892227;73;26797;-88
2022/07/18 06:18:38;;;;;;;0.80;0.80;;;;;;;;;;1889715;73;26249;-88
2022/07/18 06:21:03;;;;;;;0.85;0.85;;;;;;;;;;1887819;73;26219;-87
2022/07/18 06:23:31;;;;;;;0.95;0.95;;;;;;;;;;1888655;74;26795;-88
2022/07/18 06:25:58;;;;;;;1.07;1.00;;;;;;;;;;1887255;73;26799;-88
2022/07/18 06:28:25;;;;;;;2.80;0.98;;;;;;;;;;1889305;73;26327;-88
2022/07/18 06:30:53;;;;;;;1.00;1.00;;;;;;;;;;1888552;73;26265;-88
2022/07/18 06:33:20;;;;;;;1.15;1.12;;;;;;;;;;1887345;73;26257;-88
2022/07/18 06:35:48;;;;;;;0.90;0.90;;;;;;;;;;1892237;73;26674;-87
2022/07/18 06:38:16;;;;;;;1.00;1.00;;;;;;;;;;1888999;74;26235;-87
2022/07/18 06:40:43;;;;;;;1.00;1.00;;;;;;;;;;1884471;73;26851;-87
2022/07/18 06:43:11;;;;;;;1.90;1.07;;;;;;;;;;1888067;73;26280;-86
2022/07/18 06:45:39;;;;;;;3.20;0.93;;;;;;;;;;1861798;74;26215;-89
2022/07/18 06:48:06;;;;;;;2.15;1.00;;;;;;;;;;1890270;73;26631;-89
2022/07/18 06:50:34;;;;;;;4.90;1.20;;;;;;;;;;1893012;73;26249;-88
2022/07/18 06:53:02;;;;;;;1.92;1.10;;;;;;;;;;1881853;73;26253;-88
2022/07/18 06:55:29;;;;;;;5.50;1.22;;;;;;;;;;1883378;73;26242;-88
2022/07/18 06:57:57;;;;;;;1.22;1.10;;;;;;;;;;1882160;73;26211;-88
2022/07/18 07:00:26;;;;;;;1.45;1.10;;;;;;;;;;1886872;73;26358;-88
2022/07/18 07:02:53;;;;;;;7.62;1.00;;;;;;;;;;1884926;73;26772;-87
2022/07/18 07:05:21;;;;;;;1.20;1.20;;;;;;;;;;1886183;73;26344;-88
2022/07/18 07:07:49;;;;;;;1.17;1.12;;;;;;;;;;1892988;73;26465;-88
2022/07/18 07:10:17;;;;;;;1.20;1.20;;;;;;;;;;1877517;73;26305;-88
2022/07/18 07:12:46;;;;;;;1.00;1.00;;;;;;;;;;1886381;73;26192;-88
2022/07/18 07:15:15;;;;;;;1.95;1.17;;;;;;;;;;1886290;73;26947;-87
2022/07/18 07:17:42;;;;;;;2.25;1.20;;;;;;;;;;1884142;73;26335;-88
2022/07/18 07:20:10;;;;;;;1.12;1.12;;;;;;;;;;1887190;73;27007;-89
2022/07/18 07:22:47;;;;;;;2.15;1.47;;;;;;;;;;1888581;73;26801;-87
2022/07/18 07:25:15;;;;;;;1.22;1.12;;;;;;;;;;1887977;73;27133;-89
2022/07/18 07:27:43;;;;;;;1.37;1.10;;;;;;;;;;1895072;73;26242;-87
2022/07/18 07:30:10;;;;;;;1.22;1.20;;;;;;;;;;1888660;73;26706;-87
2022/07/18 07:32:39;;;;;;;2.02;1.40;;;;;;;;;;1889508;73;26321;-88
2022/07/18 07:35:10;;;;;;;1.22;1.22;;;;;;;;;;1884429;73;26259;-86
2022/07/18 07:37:35;;;;;;;2.40;1.32;;;;;;;;;;1884609;73;26767;-88
2022/07/18 07:40:03;;;;;;;2.12;1.55;;;;;;;;;;1885897;74;26262;-86
2022/07/18 07:42:30;;;;;;;4.00;1.42;;;;;;;;;;1889065;73;26273;-87
2022/07/18 07:44:58;;;;;;;1.65;1.40;;;;;;;;;;1886392;73;26893;-87
2022/07/18 07:47:25;;;;;;;1.50;1.40;;;;;;;;;;1890933;73;26766;-88
2022/07/18 07:49:52;;;;;;;2.30;1.50;;;;;;;;;;1884888;73;26348;-87
2022/07/18 07:52:20;;;;;;;3.05;1.40;;;;;;;;;;1860999;73;26313;-87
2022/07/18 07:54:47;;;;;;;2.50;1.40;;;;;;;;;;1882490;73;26753;-88
2022/07/18 07:57:15;;;;;;;6.55;1.52;;;;;;;;;;1888545;73;26684;-87
2022/07/18 07:59:42;;;;;;;3.58;1.50;;;;;;;;;;1882634;74;26389;-87
2022/07/18 08:02:09;;;;;;;1.62;1.40;;;;;;;;;;1892017;74;26196;-88
2022/07/18 08:04:36;;;;;;;7.42;1.40;;;;;;;;;;1880739;75;26680;-86
2022/07/18 08:07:04;;;;;;;5.92;1.40;;;;;;;;;;1898930;75;26205;-87
2022/07/18 08:09:31;;;;;;;1.90;1.70;;;;;;;;;;1890991;74;26295;-87
2022/07/18 08:11:58;;;;;;;2.67;1.37;;;;;;;;;;1911715;74;26184;-87
2022/07/18 08:14:25;;;;;;;5.42;1.80;;;;;;;;;;1896266;74;26199;-85
2022/07/18 08:16:53;;;;;;;4.15;1.57;;;;;;;;;;1887418;74;26253;-85
2022/07/18 08:19:21;;;;;;;1.67;1.47;;;;;;;;;;1900023;74;26318;-87
2022/07/18 08:21:49;;;;;;;2.95;1.50;;;;;;;;;;1891877;74;26286;-86
2022/07/18 08:24:16;;;;;;;2.15;1.62;;;;;;;;;;1888072;74;26269;-86
2022/07/18 08:26:43;;;;;;;8.50;1.37;;;;;;;;;;1890643;74;26687;-86
2022/07/18 08:29:11;;;;;;;1.82;1.42;;;;;;;;;;1902448;74;26221;-85
2022/07/18 08:31:38;;;;;;;2.75;1.50;;;;;;;;;;1890219;75;26325;-88
2022/07/18 08:34:05;;;;;;;4.78;1.80;;;;;;;;;;1912156;74;26323;-89
2022/07/18 08:36:32;;;;;;;3.47;1.42;;;;;;;;;;1890168;74;26247;-87
2022/07/18 08:39:00;;;;;;;8.35;1.60;;;;;;;;;;1881919;75;26203;-85
2022/07/18 08:41:28;;;;;;;1.82;1.55;;;;;;;;;;1882702;75;26231;-85
2022/07/18 08:43:56;;;;;;;2.60;1.40;;;;;;;;;;1898192;75;26350;-86
2022/07/18 08:46:24;;;;;;;10.80;1.67;;;;;;;;;;1896576;75;26581;-87
2022/07/18 08:48:53;;;;;;;2.75;1.60;;;;;;;;;;1882016;75;26259;-86
2022/07/18 08:51:22;;;;;;;1.67;1.57;;;;;;;;;;1889913;75;26240;-85
2022/07/18 08:53:51;;;;;;;2.20;1.65;;;;;;;;;;1892543;74;26361;-85
2022/07/18 08:56:21;;;;;;;2.98;1.50;;;;;;;;;;1885315;75;26183;-84
2022/07/18 08:58:48;;;;;;;3.02;1.60;;;;;;;;;;1875317;75;26314;-86
2022/07/18 09:01:15;;;;;;;1.50;1.40;;;;;;;;;;1907727;74;26833;-86
2022/07/18 09:03:43;;;;;;;2.25;1.60;;;;;;;;;;1901276;74;26298;-86
2022/07/18 09:06:11;;;;;;;1.72;1.62;;;;;;;;;;1896045;75;26299;-87
2022/07/18 09:08:41;;;;;;;1.27;1.27;;;;;;;;;;1896512;74;26208;-87
2022/07/18 09:11:10;;;;;;;1.60;1.50;;;;;;;;;;1884713;75;26629;-85
2022/07/18 09:13:40;;;;;;;2.40;1.40;;;;;;;;;;1889755;73;26275;-86
2022/07/18 09:16:08;;;;;;;3.55;1.47;;;;;;;;;;1887112;75;26232;-85
2022/07/18 09:18:40;;;;;;;1.55;1.45;;;;;;;;;;1891243;73;26720;-86
2022/07/18 09:21:09;;;;;;;3.35;1.32;;;;;;;;;;1913425;74;26228;-89
2022/07/18 09:23:37;;;;;;;1.47;1.47;;;;;;;;;;1908609;74;26330;-88
2022/07/18 09:26:05;;;;;;;1.50;1.40;;;;;;;;;;1892416;75;26697;-86
2022/07/18 09:28:50;;;;;;;1.67;1.60;;;;;;;;;;1887769;75;26196;-86
2022/07/18 09:31:19;;;;;;;1.50;1.40;;;;;;;;;;1887971;75;26306;-87
2022/07/18 09:33:57;;;;;;;3.08;1.40;;;;;;;;;;1891777;74;26271;-87
2022/07/18 09:36:24;;;;;;;1.50;1.40;;;;;;;;;;1885368;74;26240;-87
2022/07/18 09:38:52;;;;;;;1.22;1.22;;;;;;;;;;1895251;75;26396;-87
2022/07/18 09:41:24;;;;;;;1.40;1.30;;;;;;;;;;1900484;75;26256;-88
2022/07/18 09:43:51;;;;;;;1.60;1.47;;;;;;;;;;1891540;75;26251;-87
2022/07/18 09:46:18;;;;;;;1.35;1.32;;;;;;;;;;1887114;75;26244;-91
2022/07/18 09:48:46;;;;;;;4.08;1.22;;;;;;;;;;1888256;75;26671;-87
2022/07/18 09:51:13;;;;;;;5.37;1.60;;;;;;;;;;1889082;75;26795;-87
2022/07/18 09:53:42;;;;;;;1.60;1.50;;;;;;;;;;1888315;74;26672;-88
2022/07/18 09:56:10;;;;;;;6.72;1.50;;;;;;;;;;1886396;74;26200;-87
2022/07/18 09:58:39;;;;;;;4.42;1.67;;;;;;;;;;1894657;74;26349;-85
2022/07/18 10:01:08;;;;;;;4.97;1.77;;;;;;;;;;1915503;74;26201;-88
2022/07/18 10:03:35;;;;;;;2.17;1.57;;;;;;;;;;1886842;74;26305;-87
2022/07/18 10:06:03;;;;;;;2.40;1.45;;;;;;;;;;1896153;75;26341;-89
2022/07/18 10:08:32;;;;;;;2.50;1.50;;;;;;;;;;1896910;75;26299;-89
2022/07/18 10:11:00;;;;;;;1.85;1.40;;;;;;;;;;1886344;75;26353;-86
2022/07/18 10:13:29;;;;;;;5.40;1.50;;;;;;;;;;1887627;75;26641;-85
2022/07/18 10:15:58;;;;;;;7.60;1.57;;;;;;;;;;1883286;75;26248;-85
2022/07/18 10:18:26;;;;;;;3.75;1.50;;;;;;;;;;1873670;75;26267;-90
2022/07/18 10:21:01;;;;;;;3.98;1.67;;;;;;;;;;1886899;75;26217;-87
2022/07/18 10:23:33;;;;;;;1.50;1.40;;;;;;;;;;1881440;75;26270;-88
2022/07/18 10:26:14;;;;;;;4.50;1.40;;;;;;;;;;1889240;75;26240;-86
2022/07/18 10:28:59;;;;;;;3.12;1.40;;;;;;;;;;1882225;75;26233;-87
2022/07/18 10:31:27;;;;;;;1.72;1.30;;;;;;;;;;1888127;75;26305;-86
2022/07/18 10:33:58;;;;;;;7.12;1.40;;;;;;;;;;1897292;74;26295;-87
2022/07/18 10:36:25;;;;;;;6.12;1.50;;;;;;;;;;1880367;74;26250;-87
2022/07/18 10:38:57;;;;;;;1.55;1.42;;;;;;;;;;1892042;74;26264;-86
2022/07/18 10:41:24;;;;;;;3.47;1.40;;;;;;;;;;1888924;74;26240;-88
2022/07/18 10:43:51;;;;;;;5.87;1.47;;;;;;;;;;1865930;75;26203;-86
2022/07/18 10:46:18;;;;;;;3.22;1.10;;;;;;;;;;1889984;75;26242;-87
2022/07/18 10:48:56;;;;;;;2.60;1.30;;;;;;;;;;1888121;75;26754;-90
2022/07/18 10:51:30;;;;;;;1.32;1.22;;;;;;;;;;1887416;74;26220;-89
2022/07/18 10:53:58;;;;;;;1.22;1.22;;;;;;;;;;1873197;75;26404;-89
2022/07/18 10:56:29;;;;;;;2.15;1.20;;;;;;;;;;1880662;75;26205;-88
2022/07/18 10:58:56;;;;;;;1.30;1.20;;;;;;;;;;1875243;75;26258;-87
2022/07/18 11:01:24;;;;;;;1.50;1.40;;;;;;;;;;1886633;75;26295;-87
2022/07/18 11:03:53;;;;;;;1.22;1.22;;;;;;;;;;1895714;75;26342;-88
2022/07/18 11:06:20;;;;;;;1.22;1.22;;;;;;;;;;1883902;75;26276;-88
2022/07/18 11:08:47;;;;;;;1.47;1.10;;;;;;;;;;1883622;74;26237;-88
2022/07/18 11:11:15;;;;;;;1.20;1.20;;;;;;;;;;1884766;75;26243;-89
2022/07/18 11:13:48;;;;;;;1.10;1.10;;;;;;;;;;1878394;75;26212;-88
2022/07/18 11:16:14;;;;;;;2.35;1.30;;;;;;;;;;1895170;75;26263;-89
2022/07/18 11:18:46;;;;;;;3.12;1.20;;;;;;;;;;1884689;75;26689;-91
2022/07/18 11:21:17;;;;;;;1.15;1.15;;;;;;;;;;1887193;75;26355;-93
2022/07/18 11:23:49;;;;;;;1.07;1.07;;;;;;;;;;1884315;75;26722;-89
2022/07/18 11:26:17;;;;;;;1.52;1.30;;;;;;;;;;1869798;75;26749;-89
2022/07/18 11:28:46;;;;;;;1.37;1.20;;;;;;;;;;1873648;75;26224;-90
2022/07/18 11:31:13;;;;;;;1.20;1.20;;;;;;;;;;1899209;75;26237;-91
2022/07/18 11:33:42;;;;;;;1.75;1.62;;;;;;;;;;1890490;75;26232;-88
2022/07/18 11:36:11;;;;;;;3.40;1.67;;;;;;;;;;1894148;76;26247;-90
2022/07/18 11:38:40;;;;;;;3.58;1.85;;;;;;;;;;1877401;75;26840;-87
2022/07/18 11:41:07;;;;;;;1.60;1.45;;;;;;;;;;1884791;74;26220;-87
2022/07/18 11:43:35;;;;;;;2.30;1.70;;;;;;;;;;1887076;74;26225;-86
2022/07/18 11:46:09;;;;;;;1.60;1.50;;;;;;;;;;1879159;75;26271;-87
2022/07/18 11:48:36;;;;;;;3.70;1.65;;;;;;;;;;1880466;75;26372;-86
2022/07/18 11:51:05;;;;;;;2.00;1.60;;;;;;;;;;1880774;75;26643;-85
2022/07/18 11:53:33;;;;;;;2.70;1.82;;;;;;;;;;1862785;75;26710;-86
2022/07/18 11:56:01;;;;;;;3.22;1.92;;;;;;;;;;1891977;75;26233;-86
2022/07/18 11:58:30;;;;;;;2.35;1.82;;;;;;;;;;1896883;75;26327;-85
2022/07/18 12:00:59;;;;;;;3.05;1.60;;;;;;;;;;1885926;74;26299;-85
2022/07/18 12:03:27;;;;;;;2.08;1.80;;;;;;;;;;1881600;75;26333;-84
2022/07/18 12:05:54;;;;;;;2.00;1.90;;;;;;;;;;1881791;75;26294;-86
2022/07/18 12:08:23;;;;;;;1.72;1.62;;;;;;;;;;1887991;75;26296;-86
2022/07/18 12:11:08;;;;;;;1.70;1.60;;;;;;;;;;1881634;75;26288;-86
2022/07/18 12:13:46;;;;;;;4.10;1.47;;;;;;;;;;1890763;75;26259;-85
2022/07/18 12:16:30;;;;;;;1.42;1.35;;;;;;;;;;1886775;74;26244;-86
2022/07/18 12:19:12;;;;;;;2.52;1.60;;;;;;;;;;1903993;74;26695;-87
2022/07/18 12:21:43;;;;;;;1.55;1.45;;;;;;;;;;1897967;75;26362;-88
2022/07/18 12:24:30;;;;;;;2.35;1.60;;;;;;;;;;1888288;75;26732;-87
2022/07/18 12:27:22;;;;;;;1.80;1.47;;;;;;;;;;1882410;75;26227;-85
2022/07/18 12:30:04;;;;;;;1.57;1.50;;;;;;;;;;1874532;75;26243;-87
2022/07/18 12:32:31;;;;;;;1.72;1.62;;;;;;;;;;1877672;75;26277;-86
2022/07/18 12:34:59;;;;;;;1.87;1.50;;;;;;;;;;1886849;74;26742;-84
2022/07/18 12:37:27;;;;;;;1.57;1.40;;;;;;;;;;1883099;75;26647;-84
2022/07/18 12:39:58;;;;;;;3.12;1.82;;;;;;;;;;1862154;75;26600;-85
2022/07/18 12:42:30;;;;;;;2.65;1.77;;;;;;;;;;1888365;75;26203;-85
2022/07/18 12:44:58;;;;;;;2.02;1.80;;;;;;;;;;1883393;75;26175;-86
2022/07/18 12:47:25;;;;;;;3.35;2.30;;;;;;;;;;1892951;75;26256;-87
2022/07/18 12:49:52;;;;;;;3.02;2.02;;;;;;;;;;1881036;75;26709;-90
2022/07/18 12:52:21;;;;;;;3.80;1.95;;;;;;;;;;1897749;76;26294;-88
2022/07/18 12:54:50;;;;;;;4.75;2.15;;;;;;;;;;1885623;75;26768;-86
2022/07/18 12:57:18;;;;;;;2.52;1.98;;;;;;;;;;1895455;75;26271;-86
2022/07/18 12:59:45;;;;;;;2.35;2.00;;;;;;;;;;1885888;75;27165;-84
2022/07/18 13:02:13;;;;;;;2.25;2.05;;;;;;;;;;1891214;75;26238;-85
2022/07/18 13:04:41;;;;;;;2.47;1.82;;;;;;;;;;1907316;75;26278;-85
2022/07/18 13:07:09;;;;;;;3.27;1.90;;;;;;;;;;1878306;75;26239;-86
2022/07/18 13:09:36;;;;;;;2.08;1.90;;;;;;;;;;1890226;74;26827;-86
2022/07/18 13:12:04;;;;;;;4.53;2.00;;;;;;;;;;1885659;75;26317;-86
2022/07/18 13:14:31;;;;;;;5.40;1.92;;;;;;;;;;1883925;75;26313;-86
2022/07/18 13:16:58;;;;;;;3.10;1.62;;;;;;;;;;1885998;75;26248;-87
2022/07/18 13:19:25;;;;;;;2.00;1.57;;;;;;;;;;1876816;75;26231;-87
2022/07/18 13:21:54;;;;;;;2.90;1.70;;;;;;;;;;1903993;74;26244;-87
2022/07/18 13:24:23;;;;;;;1.80;1.70;;;;;;;;;;1897085;74;26348;-86
2022/07/18 13:26:50;;;;;;;2.87;1.72;;;;;;;;;;1902064;74;26203;-87
2022/07/18 13:29:17;;;;;;;5.62;2.10;;;;;;;;;;1888560;75;26232;-87
2022/07/18 13:31:45;;;;;;;1.75;1.60;;;;;;;;;;1884744;73;26345;-90
2022/07/18 13:34:12;;;;;;;1.77;1.45;;;;;;;;;;1886521;74;26251;-86
2022/07/18 13:36:39;;;;;;;1.95;1.45;;;;;;;;;;1885596;73;26308;-86
2022/07/18 13:39:06;;;;;;;4.42;1.80;;;;;;;;;;1887830;75;26219;-86
2022/07/18 13:41:34;;;;;;;3.77;1.50;;;;;;;;;;1891746;75;26278;-86
2022/07/18 13:44:01;;;;;;;1.45;1.35;;;;;;;;;;1895611;74;26283;-86
2022/07/18 13:46:28;;;;;;;3.77;1.50;;;;;;;;;;1898504;74;25668;-85
2022/07/18 13:48:56;;;;;;;3.25;1.55;;;;;;;;;;1891700;74;26242;-86
2022/07/18 13:51:23;;;;;;;1.30;1.30;;;;;;;;;;1885650;74;26192;-84
2022/07/18 13:53:50;;;;;;;1.35;1.27;;;;;;;;;;1894659;74;26302;-85
2022/07/18 13:56:18;;;;;;;3.27;1.75;;;;;;;;;;1906337;74;26173;-83
2022/07/18 13:58:45;;;;;;;1.50;1.27;;;;;;;;;;1891449;74;26368;-87
2022/07/18 14:01:15;;;;;;;2.33;1.30;;;;;;;;;;1891533;75;26650;-87
2022/07/18 14:03:42;;;;;;;2.02;1.40;;;;;;;;;;1872064;75;26302;-86
2022/07/18 14:06:10;;;;;;;1.55;1.47;;;;;;;;;;1882178;75;26200;-86
2022/07/18 14:08:37;;;;;;;1.45;1.37;;;;;;;;;;1892003;74;26766;-86
2022/07/18 14:11:04;;;;;;;1.45;1.45;;;;;;;;;;1886922;74;26709;-86
2022/07/18 14:13:32;;;;;;;2.08;1.60;;;;;;;;;;1881934;75;26249;-86
2022/07/18 14:15:59;;;;;;;1.47;1.40;;;;;;;;;;1883417;74;26281;-84
2022/07/18 14:18:26;;;;;;;1.40;1.40;;;;;;;;;;1874840;75;26243;-88
2022/07/18 14:20:53;;;;;;;1.55;1.45;;;;;;;;;;1902112;75;26225;-86
2022/07/18 14:23:21;;;;;;;2.05;1.50;;;;;;;;;;1887923;75;26188;-86
2022/07/18 14:25:49;;;;;;;9.08;1.60;;;;;;;;;;1895685;74;26244;-85
2022/07/18 14:28:16;;;;;;;3.22;1.60;;;;;;;;;;1900540;72;26202;-88
2022/07/18 14:30:43;;;;;;;2.17;1.40;;;;;;;;;;1900865;74;26209;-84
2022/07/18 14:33:11;;;;;;;4.40;1.35;;;;;;;;;;1901696;72;26200;-86
2022/07/18 14:35:38;;;;;;;2.08;1.30;;;;;;;;;;1889744;74;26220;-85
2022/07/18 14:38:05;;;;;;;1.50;1.37;;;;;;;;;;1891432;73;26232;-86
2022/07/18 14:40:33;;;;;;;1.42;1.40;;;;;;;;;;1901154;73;26212;-86
2022/07/18 14:43:00;;;;;;;2.80;1.32;;;;;;;;;;1890910;74;26236;-92
2022/07/18 14:45:27;;;;;;;2.70;1.40;;;;;;;;;;1887912;71;26268;-89
2022/07/18 14:47:55;;;;;;;3.22;1.62;;;;;;;;;;1895606;73;26277;-86
2022/07/18 14:50:22;;;;;;;1.55;1.40;;;;;;;;;;1885915;74;26344;-86
2022/07/18 14:52:51;;;;;;;2.95;1.30;;;;;;;;;;1883761;76;26286;-85
2022/07/18 14:55:18;;;;;;;1.10;1.10;;;;;;;;;;1887808;75;26791;-85